Time;durP1;ratioP1;P1;durP2;ratioP2;P2;SDS_P1;SDS_P2;PMS_P1;PMS_P2;Temp;Humidity;BMP_temperature;BMP_pressure;BME280_temperature;BME280_humidity;BME280_pressure;Samples;Min_cycle;Max_cycle;Signal;HPM_P1;HPM_P2
2021/12/23 00:00:29;;;;;;;34.73;19.90;;;8.80;91.10;;;;;;10367154;28;20593;-86
2021/12/23 00:05:31;;;;;;;42.67;21.93;;;8.60;91.20;;;;;;10367476;28;20280;-88
2021/12/23 00:10:34;;;;;;;30.07;18.10;;;8.00;91.60;;;;;;10367322;28;20256;-86
2021/12/23 00:16:00;;;;;;;31.13;17.70;;;8.20;92.80;;;;;;10366049;28;20219;-86
2021/12/23 00:26:20;;;;;;;40.57;19.70;;;7.90;90.90;;;;;;10374953;28;20635;-86
2021/12/23 00:31:23;;;;;;;28.20;16.17;;;8.00;91.50;;;;;;10375140;28;20309;-86
2021/12/23 00:36:25;;;;;;;33.57;18.80;;;8.30;91.80;;;;;;10357400;28;20616;-86
2021/12/23 00:41:31;;;;;;;31.20;17.67;;;7.90;92.10;;;;;;10374718;28;20235;-86
2021/12/23 00:46:33;;;;;;;31.40;16.37;;;8.10;92.00;;;;;;10374795;28;20237;-86
2021/12/23 00:51:36;;;;;;;29.00;16.30;;;7.90;92.10;;;;;;10373335;28;20299;-86
2021/12/23 00:56:39;;;;;;;34.73;20.23;;;8.10;91.80;;;;;;10372493;28;20260;-85
2021/12/23 01:01:42;;;;;;;36.63;19.27;;;8.30;91.20;;;;;;10373931;28;20233;-87
2021/12/23 01:06:45;;;;;;;25.90;15.30;;;8.10;91.10;;;;;;10373124;28;20233;-86
2021/12/23 01:11:49;;;;;;;46.00;24.47;;;8.40;90.90;;;;;;10373704;28;20292;-86
2021/12/23 01:22:00;;;;;;;25.33;14.33;;;8.60;90.20;;;;;;10373112;28;20260;-86
2021/12/23 01:27:03;;;;;;;29.13;16.20;;;8.30;90.20;;;;;;10373269;28;20671;-86
2021/12/23 01:32:06;;;;;;;27.67;14.53;;;8.40;89.70;;;;;;10350444;28;20751;-86
2021/12/23 01:37:09;;;;;;;33.10;19.77;;;8.20;90.70;;;;;;10372678;28;20276;-86
2021/12/23 01:42:11;;;;;;;24.87;15.60;;;8.10;90.30;;;;;;10371472;28;20775;-86
2021/12/23 01:47:14;;;;;;;28.67;17.17;;;8.10;90.40;;;;;;10371003;28;20234;-86
2021/12/23 01:52:17;;;;;;;38.93;22.17;;;8.20;90.40;;;;;;10372965;28;20251;-86
2021/12/23 01:57:20;;;;;;;37.60;22.10;;;7.70;89.30;;;;;;10371151;28;20805;-86
2021/12/23 02:02:22;;;;;;;31.00;16.53;;;7.40;90.80;;;;;;10370527;28;20577;-86
2021/12/23 02:07:25;;;;;;;30.23;17.47;;;7.40;92.20;;;;;;10372001;28;20669;-86
2021/12/23 02:12:28;;;;;;;42.80;24.37;;;7.40;91.40;;;;;;10370763;28;20258;-86
2021/12/23 02:17:35;;;;;;;33.87;18.13;;;7.30;90.60;;;;;;10370246;28;20228;-86
2021/12/23 02:22:39;;;;;;;42.37;21.70;;;7.50;91.80;;;;;;10371383;28;20267;-86
2021/12/23 02:27:42;;;;;;;50.60;25.30;;;7.30;91.20;;;;;;10371230;28;20224;-86
2021/12/23 02:32:45;;;;;;;27.20;15.90;;;7.20;91.70;;;;;;10329330;28;20716;-87
2021/12/23 02:37:48;;;;;;;37.57;21.70;;;7.20;92.90;;;;;;10369472;28;20669;-86
2021/12/23 02:42:51;;;;;;;41.33;23.53;;;7.10;91.60;;;;;;10369190;28;20614;-87
2021/12/23 02:47:53;;;;;;;32.43;16.87;;;7.20;92.50;;;;;;10369745;28;20236;-86
2021/12/23 02:52:58;;;;;;;40.80;22.90;;;7.50;92.00;;;;;;10370134;28;20303;-86
2021/12/23 02:58:01;;;;;;;36.63;20.53;;;7.80;90.40;;;;;;10368068;28;20675;-86
2021/12/23 03:03:04;;;;;;;32.90;19.07;;;7.50;91.40;;;;;;10368236;28;20214;-86
2021/12/23 03:08:06;;;;;;;38.37;19.87;;;7.60;90.90;;;;;;10368339;28;20234;-86
2021/12/23 03:13:09;;;;;;;41.63;22.07;;;7.30;91.30;;;;;;10369208;28;20244;-86
2021/12/23 03:18:12;;;;;;;31.50;17.83;;;7.10;90.20;;;;;;10367762;28;20208;-86
2021/12/23 03:23:14;;;;;;;31.23;18.60;;;7.10;92.00;;;;;;10368712;28;20650;-86
2021/12/23 03:28:17;;;;;;;36.10;19.00;;;7.40;91.30;;;;;;10368868;28;20623;-86
2021/12/23 03:33:20;;;;;;;31.50;18.17;;;7.30;91.30;;;;;;10368167;28;20249;-86
2021/12/23 03:38:24;;;;;;;28.03;17.10;;;7.30;90.90;;;;;;10367204;28;20666;-86
2021/12/23 03:43:28;;;;;;;29.53;16.07;;;7.60;91.20;;;;;;10368629;28;20283;-86
2021/12/23 03:48:31;;;;;;;28.77;17.23;;;8.00;91.20;;;;;;10366511;28;20237;-86
2021/12/23 03:53:33;;;;;;;31.67;17.00;;;8.30;88.70;;;;;;10366012;28;20244;-86
2021/12/23 03:58:36;;;;;;;27.27;15.90;;;8.60;89.80;;;;;;10367610;28;20230;-86
2021/12/23 04:03:39;;;;;;;29.70;17.87;;;8.70;86.90;;;;;;10367547;28;20620;-86
2021/12/23 04:08:42;;;;;;;37.40;20.80;;;8.60;86.20;;;;;;10366843;28;20615;-86
2021/12/23 04:13:44;;;;;;;36.07;20.53;;;8.30;84.80;;;;;;10367336;28;20312;-86
2021/12/23 04:18:50;;;;;;;26.63;15.23;;;8.20;87.60;;;;;;10367196;28;20234;-86
2021/12/23 04:23:52;;;;;;;30.33;16.67;;;8.30;88.80;;;;;;10367051;28;20260;-86
2021/12/23 04:28:55;;;;;;;29.00;16.43;;;8.40;87.50;;;;;;10365984;28;20263;-86
2021/12/23 04:33:57;;;;;;;30.77;16.23;;;8.40;86.90;;;;;;10366641;28;20776;-86
2021/12/23 04:39:00;;;;;;;30.30;16.77;;;8.70;86.20;;;;;;10367963;28;20282;-86
2021/12/23 04:44:03;;;;;;;26.87;16.03;;;8.60;85.30;;;;;;10365482;28;20290;-86
2021/12/23 04:49:06;;;;;;;27.03;16.50;;;8.40;86.90;;;;;;10365401;28;20210;-87
2021/12/23 04:54:09;;;;;;;29.40;16.57;;;8.20;86.00;;;;;;10367376;28;20225;-86
2021/12/23 04:59:11;;;;;;;29.13;17.10;;;8.20;87.60;;;;;;10367288;28;20201;-86
2021/12/23 05:04:14;;;;;;;38.23;20.63;;;8.60;85.70;;;;;;10368178;28;20232;-86
2021/12/23 05:09:16;;;;;;;37.70;18.80;;;8.40;83.60;;;;;;10373234;28;20227;-86
2021/12/23 05:14:19;;;;;;;25.03;14.80;;;8.50;84.50;;;;;;10373850;28;20616;-87
2021/12/23 05:19:21;;;;;;;28.47;16.93;;;8.50;85.60;;;;;;10374283;28;20291;-86
2021/12/23 05:24:24;;;;;;;28.23;16.20;;;8.10;86.10;;;;;;10373358;28;20228;-86
2021/12/23 05:29:26;;;;;;;25.97;14.50;;;8.10;88.70;;;;;;10373833;28;20276;-86
2021/12/23 05:34:29;;;;;;;27.20;14.77;;;9.00;85.50;;;;;;10371548;28;20198;-86
2021/12/23 05:39:31;;;;;;;24.60;14.53;;;9.50;83.20;;;;;;10371537;28;20249;-86
2021/12/23 05:44:34;;;;;;;31.87;17.67;;;9.50;82.40;;;;;;10370931;28;20667;-86
2021/12/23 05:49:36;;;;;;;19.70;13.00;;;8.80;80.30;;;;;;10370977;28;20209;-86
2021/12/23 05:54:39;;;;;;;25.77;14.90;;;9.70;81.90;;;;;;10372222;28;20680;-86
2021/12/23 05:59:41;;;;;;;25.50;14.83;;;9.50;80.90;;;;;;10372034;28;20657;-86
2021/12/23 06:04:44;;;;;;;32.10;18.80;;;9.90;80.30;;;;;;10371375;28;20238;-86
2021/12/23 06:09:46;;;;;;;24.67;14.73;;;10.00;78.00;;;;;;10369866;28;20798;-86
2021/12/23 06:14:49;;;;;;;22.10;13.60;;;10.00;79.90;;;;;;10371575;28;20293;-86
2021/12/23 06:19:51;;;;;;;38.07;22.77;;;10.00;78.60;;;;;;10370987;28;20691;-86
2021/12/23 06:24:54;;;;;;;26.13;14.50;;;9.90;72.90;;;;;;10369432;28;20299;-86
2021/12/23 06:29:56;;;;;;;40.33;22.57;;;9.30;80.60;;;;;;10370398;28;20253;-86
2021/12/23 06:34:59;;;;;;;28.50;15.53;;;8.80;77.10;;;;;;10369871;28;20669;-86
2021/12/23 06:40:02;;;;;;;29.67;17.03;;;8.30;83.10;;;;;;10367179;28;20737;-86
2021/12/23 06:45:06;;;;;;;21.57;13.10;;;8.30;82.90;;;;;;10370054;28;20228;-87
2021/12/23 06:50:09;;;;;;;22.13;13.03;;;9.00;81.30;;;;;;10367621;28;20318;-86
2021/12/23 06:55:13;;;;;;;22.50;13.13;;;9.60;80.80;;;;;;10364327;28;20227;-86
2021/12/23 07:00:17;;;;;;;33.10;18.57;;;10.30;78.80;;;;;;10362836;28;20227;-86
2021/12/23 07:05:22;;;;;;;26.10;15.90;;;10.60;74.80;;;;;;10372766;28;20231;-86
2021/12/23 07:10:27;;;;;;;36.43;17.97;;;9.60;75.00;;;;;;10383008;28;20256;-86
2021/12/23 07:15:30;;;;;;;26.03;15.17;;;8.90;79.30;;;;;;10367667;28;20228;-86
2021/12/23 07:20:32;;;;;;;63.13;29.57;;;9.10;80.50;;;;;;10326356;28;20237;-86
2021/12/23 07:25:35;;;;;;;70.77;32.50;;;8.70;72.60;;;;;;10328668;28;20241;-86
2021/12/23 07:30:38;;;;;;;30.37;17.63;;;8.80;76.30;;;;;;10361614;28;20257;-86
2021/12/23 07:35:41;;;;;;;40.33;22.10;;;9.10;80.90;;;;;;10368678;28;20201;-86
2021/12/23 07:40:44;;;;;;;39.67;20.60;;;9.40;76.60;;;;;;10366790;28;20293;-86
2021/12/23 07:45:47;;;;;;;41.20;22.87;;;8.80;75.50;;;;;;10368243;28;20238;-86
2021/12/23 07:50:50;;;;;;;23.73;14.20;;;8.60;77.20;;;;;;10366624;28;20701;-86
2021/12/23 07:55:53;;;;;;;26.27;14.37;;;8.20;82.90;;;;;;10367888;28;20904;-86
2021/12/23 08:00:55;;;;;;;27.00;15.53;;;8.20;82.50;;;;;;10367002;28;20242;-86
2021/12/23 08:05:59;;;;;;;43.63;23.53;;;8.40;81.10;;;;;;10366421;28;20795;-86
2021/12/23 08:11:02;;;;;;;37.37;19.47;;;7.70;77.50;;;;;;10365955;28;20295;-86
2021/12/23 08:16:05;;;;;;;37.03;19.00;;;8.00;85.10;;;;;;10367858;28;20280;-86
2021/12/23 08:21:08;;;;;;;32.47;18.00;;;8.20;82.50;;;;;;10365742;28;20317;-86
2021/12/23 08:26:15;;;;;;;42.80;24.97;;;8.30;82.00;;;;;;10365827;28;20702;-86
2021/12/23 08:31:20;;;;;;;36.27;20.57;;;8.30;78.60;;;;;;10366006;28;20256;-86
2021/12/23 08:36:24;;;;;;;60.57;32.23;;;7.90;83.00;;;;;;10343958;28;20598;-86
2021/12/23 08:41:27;;;;;;;28.13;16.73;;;7.70;76.30;;;;;;10330682;28;20236;-85
2021/12/23 08:46:29;;;;;;;28.30;15.50;;;7.90;83.70;;;;;;10349362;28;20267;-86
2021/12/23 08:51:33;;;;;;;36.20;20.23;;;8.00;83.90;;;;;;10373972;28;20862;-86
2021/12/23 08:56:36;;;;;;;27.27;15.90;;;8.70;82.70;;;;;;10375784;28;20229;-86
2021/12/23 09:01:40;;;;;;;57.67;28.33;;;8.40;82.90;;;;;;10385851;28;20228;-86
2021/12/23 09:06:43;;;;;;;32.87;18.77;;;8.10;80.10;;;;;;10396886;28;20269;-86
2021/12/23 09:11:46;;;;;;;36.17;20.23;;;7.60;74.10;;;;;;10385670;28;20750;-88
2021/12/23 09:16:48;;;;;;;50.97;26.70;;;7.70;84.20;;;;;;10373270;28;20220;-87
2021/12/23 09:21:51;;;;;;;47.10;25.97;;;7.70;74.80;;;;;;10373825;28;20240;-84
2021/12/23 09:27:13;;;;;;;46.37;23.93;;;9.90;63.70;;;;;;10374549;28;20228;-86
2021/12/23 09:37:38;;;;;;;48.43;26.17;;;7.10;85.20;;;;;;10371732;28;20235;-85
2021/12/23 09:42:43;;;;;;;39.13;22.80;;;8.20;69.20;;;;;;10372212;28;20228;-86
2021/12/23 09:47:48;;;;;;;49.43;28.00;;;8.10;74.90;;;;;;10371699;28;20302;-86
2021/12/23 09:52:52;;;;;;;31.50;18.97;;;8.00;70.60;;;;;;10370968;28;20248;-87
2021/12/23 09:57:58;;;;;;;42.53;22.80;;;9.10;76.50;;;;;;10370016;28;20225;-86
2021/12/23 10:03:00;;;;;;;37.00;21.93;;;9.70;70.90;;;;;;10370931;28;20208;-87
2021/12/23 10:08:06;;;;;;;36.37;18.63;;;8.90;77.80;;;;;;10370120;28;20263;-87
2021/12/23 10:26:59;;;;;;;35.50;19.67;;;9.50;75.90;;;;;;10370114;28;20267;-87
2021/12/23 10:40:36;;;;;;;33.03;16.33;;;10.00;75.10;;;;;;10379518;28;20224;-85
2021/12/23 10:45:51;;;;;;;36.93;19.23;;;10.10;75.30;;;;;;10349633;28;20667;-86
2021/12/23 10:51:02;;;;;;;35.97;18.77;;;10.80;73.70;;;;;;10366263;28;20292;-86
2021/12/23 11:01:33;;;;;;;44.33;22.73;;;11.00;71.30;;;;;;10367197;28;20226;-87
2021/12/23 11:06:42;;;;;;;34.47;18.53;;;10.90;68.40;;;;;;10365760;28;20253;-87
2021/12/23 11:38:18;;;;;;;47.57;24.57;;;10.70;57.90;;;;;;10369508;28;20233;-86
2021/12/23 11:48:26;;;;;;;46.70;27.33;;;9.20;59.50;;;;;;10367572;28;20252;-86
2021/12/23 11:53:29;;;;;;;47.13;23.87;;;9.00;60.30;;;;;;10368615;28;20440;-86
2021/12/23 11:58:32;;;;;;;48.90;27.97;;;9.00;61.20;;;;;;10367671;28;20255;-86
2021/12/23 12:04:02;;;;;;;48.47;28.30;;;9.00;62.30;;;;;;10350760;28;20272;-86
2021/12/23 12:09:12;;;;;;;35.67;20.00;;;8.40;63.40;;;;;;10348166;28;20264;-86
2021/12/23 12:14:45;;;;;;;46.13;25.57;;;8.20;66.40;;;;;;10368352;28;20260;-86
2021/12/23 12:20:10;;;;;;;37.13;22.07;;;8.30;66.20;;;;;;10251146;29;20763;-85
2021/12/23 12:25:43;;;;;;;42.90;23.23;;;8.60;66.90;;;;;;10251240;29;20297;-86
2021/12/23 12:30:50;;;;;;;39.70;20.50;;;8.60;66.00;;;;;;10235488;29;20246;-86
2021/12/23 12:36:01;;;;;;;36.30;19.13;;;8.60;68.50;;;;;;10250873;29;20388;-86
2021/12/23 12:41:12;;;;;;;44.50;22.93;;;8.60;68.10;;;;;;10234734;29;20277;-87
2021/12/23 12:46:55;;;;;;;41.27;22.87;;;8.70;64.80;;;;;;10232542;28;20597;-86
2021/12/23 12:52:18;;;;;;;38.23;21.93;;;8.40;65.30;;;;;;10232963;29;20262;-86
2021/12/23 12:57:25;;;;;;;31.37;17.97;;;8.20;67.30;;;;;;10354754;28;20625;-86
2021/12/23 13:02:33;;;;;;;41.13;23.30;;;8.40;69.70;;;;;;10373998;28;20305;-86
2021/12/23 13:07:41;;;;;;;31.23;18.50;;;8.50;68.00;;;;;;10375384;28;20282;-85
2021/12/23 13:13:05;;;;;;;43.47;23.30;;;8.40;69.00;;;;;;10375930;28;20254;-86
2021/12/23 13:18:26;;;;;;;39.30;24.17;;;8.40;67.20;;;;;;10388799;28;20231;-85
2021/12/23 13:23:33;;;;;;;34.43;19.03;;;8.40;66.90;;;;;;10374605;28;20335;-86
2021/12/23 13:28:36;;;;;;;41.10;22.73;;;8.60;70.10;;;;;;10373061;28;20238;-86
2021/12/23 13:33:45;;;;;;;48.30;25.87;;;8.30;70.40;;;;;;10356171;28;20285;-86
2021/12/23 13:39:09;;;;;;;45.60;25.03;;;8.60;69.10;;;;;;10367518;28;20282;-85
2021/12/23 13:44:14;;;;;;;44.83;24.90;;;8.60;65.20;;;;;;10371351;28;20227;-86
2021/12/23 13:49:17;;;;;;;42.97;23.07;;;7.20;71.60;;;;;;10371657;28;20244;-86
2021/12/23 13:54:20;;;;;;;45.70;27.33;;;6.90;73.70;;;;;;10371134;28;20303;-86
2021/12/23 13:59:26;;;;;;;35.30;19.17;;;6.40;75.00;;;;;;10354836;28;20223;-85
2021/12/23 14:04:42;;;;;;;40.13;22.90;;;6.50;78.40;;;;;;10391902;28;20188;-86
2021/12/23 14:09:57;;;;;;;50.77;25.80;;;6.80;77.30;;;;;;10419388;28;20192;-86
2021/12/23 14:15:07;;;;;;;54.27;29.57;;;7.20;76.50;;;;;;10406890;28;20243;-86
2021/12/23 14:25:53;;;;;;;61.90;31.67;;;7.30;75.90;;;;;;10417274;28;20274;-85
2021/12/23 14:31:16;;;;;;;131.57;32.30;;;4.70;66.70;;;;;;10421243;28;20211;-86
2021/12/23 14:36:33;;;;;;;102.67;30.53;;;5.40;87.20;;;;;;10448577;28;20234;-85
2021/12/23 14:41:49;;;;;;;86.83;29.17;;;7.80;76.80;;;;;;10448657;28;20183;-86
2021/12/23 14:47:11;;;;;;;116.63;28.97;;;8.30;74.60;;;;;;10443142;28;20669;-86
2021/12/23 14:52:21;;;;;;;78.97;30.07;;;8.90;74.40;;;;;;10384188;28;20220;-85
2021/12/23 14:57:33;;;;;;;71.43;30.23;;;9.40;72.30;;;;;;10429902;28;20231;-86
2021/12/23 15:02:36;;;;;;;69.73;31.80;;;9.50;70.70;;;;;;10423476;28;20188;-85
2021/12/23 15:07:51;;;;;;;82.03;32.23;;;9.40;68.80;;;;;;10423835;28;20212;-85
2021/12/23 15:12:54;;;;;;;62.63;21.47;;;9.60;70.10;;;;;;10401088;28;20226;-87
2021/12/23 15:18:05;;;;;;;59.53;28.17;;;9.40;73.70;;;;;;10338143;28;20210;-86
2021/12/23 15:23:08;;;;;;;49.23;27.73;;;9.00;72.50;;;;;;10341380;28;20237;-85
2021/12/23 15:28:13;;;;;;;59.50;29.60;;;8.20;75.30;;;;;;10369687;28;20201;-85
2021/12/23 15:33:16;;;;;;;58.57;21.10;;;8.80;71.40;;;;;;10379284;28;20234;-85
2021/12/23 15:38:19;;;;;;;44.43;18.33;;;9.20;75.70;;;;;;10384868;28;20204;-85
2021/12/23 15:43:21;;;;;;;46.70;20.93;;;9.70;75.20;;;;;;10380429;28;20206;-85
2021/12/23 15:48:23;;;;;;;50.57;17.53;;;11.20;71.60;;;;;;10031627;28;10000108;-85
2021/12/23 15:53:26;;;;;;;53.63;19.03;;;12.00;69.10;;;;;;10379178;28;20227;-86
2021/12/23 15:58:33;;;;;;;51.13;20.63;;;12.50;67.60;;;;;;10383663;28;20234;-85
2021/12/23 16:03:56;;;;;;;47.10;18.17;;;12.30;67.80;;;;;;10370763;28;20578;-85
2021/12/23 16:08:59;;;;;;;42.53;17.67;;;12.10;68.10;;;;;;10385310;28;20215;-85
2021/12/23 16:14:01;;;;;;;54.17;26.70;;;12.10;68.40;;;;;;10382927;28;20228;-85
2021/12/23 16:19:04;;;;;;;60.90;33.23;;;11.60;66.30;;;;;;10390879;28;20261;-86
2021/12/23 16:24:07;;;;;;;55.17;28.10;;;9.90;67.30;;;;;;10385002;28;20230;-86
2021/12/23 16:29:11;;;;;;;49.07;25.33;;;9.80;71.40;;;;;;10381634;28;20234;-86
2021/12/23 16:34:14;;;;;;;54.17;24.37;;;9.40;71.70;;;;;;10374072;28;20218;-85
2021/12/23 16:39:16;;;;;;;64.63;31.00;;;8.90;74.60;;;;;;10376105;28;20859;-85
2021/12/23 16:44:19;;;;;;;48.77;22.93;;;8.80;73.80;;;;;;10381087;28;20198;-83
2021/12/23 16:49:21;;;;;;;56.97;32.17;;;8.90;75.50;;;;;;10378959;28;20248;-85
2021/12/23 16:54:24;;;;;;;54.40;29.13;;;8.60;75.10;;;;;;10399696;28;20245;-85
2021/12/23 16:59:31;;;;;;;50.83;28.77;;;8.80;75.20;;;;;;10361613;28;20202;-84
2021/12/23 17:04:34;;;;;;;60.43;30.83;;;8.30;75.40;;;;;;10396285;28;20272;-84
2021/12/23 17:09:37;;;;;;;50.53;28.57;;;8.40;76.50;;;;;;10401140;28;20236;-85
2021/12/23 17:14:39;;;;;;;77.80;41.37;;;8.60;75.80;;;;;;10386589;28;20230;-84
2021/12/23 17:20:01;;;;;;;60.63;29.00;;;8.20;68.60;;;;;;10384145;28;20957;-85
2021/12/23 17:25:04;;;;;;;65.13;33.53;;;8.60;76.80;;;;;;10376572;28;20277;-85
2021/12/23 17:30:07;;;;;;;46.77;23.40;;;8.00;73.40;;;;;;10394730;28;20206;-85
2021/12/23 17:35:10;;;;;;;70.80;40.17;;;7.80;80.60;;;;;;10412334;28;20217;-84
2021/12/23 17:40:13;;;;;;;79.67;39.57;;;-0.10;94.50;;;;;;10388787;28;20204;-84
2021/12/23 17:45:16;;;;;;;80.13;39.93;;;-0.50;98.50;;;;;;10380125;28;20203;-85
2021/12/23 18:20:37;;;;;;;28.63;16.97;;;8.20;99.90;;;;;;10567338;28;20237;-82
2021/12/23 18:25:40;;;;;;;56.10;31.87;;;9.00;96.10;;;;;;10541213;28;20221;-83
2021/12/23 18:30:45;;;;;;;54.17;31.60;;;8.20;90.70;;;;;;10549383;28;20205;-82
2021/12/23 18:35:48;;;;;;;67.30;38.13;;;6.50;86.10;;;;;;10568129;28;20218;-80
2021/12/23 18:40:51;;;;;;;60.20;31.50;;;1.10;99.90;;;;;;10538295;28;20205;-81
2021/12/23 18:45:58;;;;;;;46.83;27.43;;;3.30;99.90;;;;;;10540255;28;20205;-81
2021/12/23 18:51:00;;;;;;;41.00;23.83;;;5.00;99.90;;;;;;10560990;28;20236;-82
2021/12/23 18:56:11;;;;;;;28.77;15.93;;;6.30;99.90;;;;;;10560530;28;20256;-81
2021/12/23 19:01:16;;;;;;;46.20;27.23;;;6.70;99.90;;;;;;10560359;28;20290;-81
2021/12/23 19:06:21;;;;;;;48.20;23.87;;;7.60;94.20;;;;;;10547115;28;20623;-81
2021/12/23 19:11:27;;;;;;;39.70;22.67;;;2.80;99.90;;;;;;10548634;28;20202;-79
2021/12/23 19:16:30;;;;;;;41.47;23.83;;;7.10;99.90;;;;;;10534835;28;20636;-81
2021/12/23 19:21:36;;;;;;;54.27;30.93;;;7.10;99.90;;;;;;10566381;28;20251;-82
2021/12/23 19:26:40;;;;;;;48.33;28.07;;;7.10;91.90;;;;;;10572521;28;20236;-81
2021/12/23 19:31:43;;;;;;;46.47;27.47;;;5.90;95.20;;;;;;10557525;28;20317;-81
2021/12/23 19:36:46;;;;;;;43.50;25.10;;;6.60;99.90;;;;;;10552110;28;20305;-81
2021/12/23 19:41:48;;;;;;;49.03;25.87;;;7.00;99.90;;;;;;10565311;28;20721;-82
2021/12/23 19:46:51;;;;;;;48.53;26.80;;;6.60;98.70;;;;;;10550613;28;20244;-81
2021/12/23 19:51:54;;;;;;;53.43;30.43;;;6.70;97.80;;;;;;10572053;28;20282;-81
2021/12/23 19:56:57;;;;;;;44.33;23.17;;;6.10;94.40;;;;;;10574092;28;20345;-81
2021/12/23 20:02:00;;;;;;;31.17;17.87;;;6.20;99.90;;;;;;10555204;28;20753;-84
2021/12/23 20:07:04;;;;;;;30.33;16.33;;;7.90;99.90;;;;;;10571769;28;20668;-82
2021/12/23 20:12:07;;;;;;;16.07;12.03;;;10.10;97.00;;;;;;10574363;28;20237;-82
2021/12/23 20:17:10;;;;;;;42.60;25.57;;;10.40;96.80;;;;;;10568046;28;20252;-81
2021/12/23 20:22:12;;;;;;;44.77;27.37;;;8.00;85.70;;;;;;10546539;28;20693;-82
2021/12/23 20:27:15;;;;;;;55.60;31.53;;;7.60;91.70;;;;;;10566896;28;20306;-81
2021/12/23 20:32:17;;;;;;;54.30;30.23;;;7.50;88.90;;;;;;10564485;28;20698;-81
2021/12/23 20:37:20;;;;;;;41.47;24.80;;;6.50;93.30;;;;;;10529388;28;20898;-81
2021/12/23 20:42:23;;;;;;;47.07;27.17;;;7.80;99.10;;;;;;10555419;28;20205;-81
2021/12/23 20:47:26;;;;;;;58.77;34.20;;;7.70;94.00;;;;;;10551147;28;20221;-81
2021/12/23 20:52:28;;;;;;;45.53;27.97;;;7.00;86.00;;;;;;10574865;28;20205;-80
2021/12/23 20:57:32;;;;;;;37.37;23.63;;;7.70;93.70;;;;;;10563200;28;20297;-80
2021/12/23 21:02:34;;;;;;;45.20;28.37;;;7.70;93.70;;;;;;10579745;28;20274;-80
2021/12/23 21:07:37;;;;;;;43.63;27.00;;;6.70;91.00;;;;;;9868415;28;10000695;-80
2021/12/23 21:12:40;;;;;;;42.73;24.83;;;6.60;90.00;;;;;;10537848;28;20241;-83
2021/12/23 21:17:42;;;;;;;31.87;19.53;;;6.60;95.20;;;;;;10570973;28;20252;-83
2021/12/23 21:22:45;;;;;;;49.53;29.33;;;6.70;99.60;;;;;;10576592;28;20225;-80
2021/12/23 21:27:48;;;;;;;38.47;22.73;;;7.10;93.80;;;;;;10548398;28;20750;-80
2021/12/23 21:32:50;;;;;;;34.97;20.77;;;6.50;99.70;;;;;;10573019;28;20694;-80
2021/12/23 21:37:57;;;;;;;34.50;22.03;;;7.40;98.10;;;;;;10538064;28;20260;-80
2021/12/23 21:43:00;;;;;;;52.77;29.00;;;6.90;94.10;;;;;;10572833;28;20240;-80
2021/12/23 21:48:03;;;;;;;46.50;27.37;;;7.60;92.00;;;;;;10572295;28;20696;-78
2021/12/23 21:53:05;;;;;;;32.37;19.20;;;6.30;92.10;;;;;;10570912;28;20620;-78
2021/12/23 21:58:10;;;;;;;45.63;26.30;;;8.00;93.30;;;;;;10536428;28;20283;-80
2021/12/23 22:03:14;;;;;;;47.57;26.57;;;8.60;92.70;;;;;;10556340;28;20294;-79
2021/12/23 22:08:17;;;;;;;29.47;16.23;;;8.60;92.30;;;;;;10538151;28;20347;-79
2021/12/23 22:13:20;;;;;;;30.83;18.97;;;8.60;95.50;;;;;;10575768;28;20233;-79
2021/12/23 22:18:23;;;;;;;34.57;21.27;;;9.10;90.80;;;;;;10556309;28;20278;-79
2021/12/23 22:23:25;;;;;;;42.50;26.30;;;10.10;89.10;;;;;;10549204;28;20234;-79
2021/12/23 22:28:27;;;;;;;32.67;19.70;;;10.50;80.40;;;;;;10529113;28;20302;-79
2021/12/23 22:33:31;;;;;;;19.70;11.97;;;10.20;86.60;;;;;;10514854;28;20237;-80
2021/12/23 22:38:33;;;;;;;17.97;11.50;;;10.20;90.30;;;;;;10516822;28;20293;-79
2021/12/23 22:43:36;;;;;;;18.87;11.67;;;11.80;83.90;;;;;;10553186;28;20921;-79
2021/12/23 22:48:39;;;;;;;16.93;11.13;;;12.20;81.50;;;;;;10525947;28;20615;-79
2021/12/23 22:53:41;;;;;;;16.47;11.30;;;12.20;81.90;;;;;;10572491;28;20294;-79
2021/12/23 22:58:44;;;;;;;17.67;11.27;;;11.90;82.00;;;;;;10571665;28;20238;-79
2021/12/23 23:03:47;;;;;;;23.33;14.97;;;12.30;80.40;;;;;;10555119;28;20675;-80
2021/12/23 23:08:50;;;;;;;19.03;11.23;;;;;;;;;;10554522;28;20244;-79
2021/12/23 23:14:09;;;;;;;27.37;17.80;;;12.60;78.10;;;;;;10553644;28;20303;-79
2021/12/23 23:19:15;;;;;;;19.83;11.07;;;12.60;74.70;;;;;;10554109;28;20252;-79
2021/12/23 23:24:25;;;;;;;16.67;11.90;;;12.70;77.10;;;;;;10567157;28;20243;-79
2021/12/23 23:40:19;;;;;;;33.03;22.03;;;11.60;78.50;;;;;;10520617;28;20202;-79
2021/12/23 23:45:31;;;;;;;24.73;14.70;;;11.30;74.00;;;;;;10572054;28;20234;-80
2021/12/23 23:50:38;;;;;;;22.57;13.97;;;11.70;80.30;;;;;;10567080;27;20241;-79
2021/12/23 23:55:42;;;;;;;18.43;11.93;;;11.70;79.30;;;;;;10575296;28;20723;-82
